createdAt,value
2022-12-31T00:00:45.019Z,0.09
2022-12-31T00:04:03.630Z,0.10
2022-12-31T00:07:19.700Z,0.14
2022-12-31T00:10:38.033Z,0.15
2022-12-31T00:13:56.449Z,0.10
2022-12-31T00:17:13.002Z,-0.08
2022-12-31T00:20:29.330Z,-0.10
2022-12-31T00:23:46.787Z,-0.16
2022-12-31T00:27:04.074Z,-0.31
2022-12-31T00:30:24.317Z,-0.21
2022-12-31T00:33:40.715Z,-0.19
2022-12-31T00:36:57.168Z,-0.21
2022-12-31T00:40:16.883Z,-0.22
2022-12-31T00:43:33.641Z,-0.15
2022-12-31T00:46:50.014Z,-0.06
2022-12-31T00:50:06.139Z,0.06
2022-12-31T00:53:22.268Z,0.11
2022-12-31T00:56:39.452Z,0.07
2022-12-31T00:59:55.573Z,0.08
2022-12-31T01:03:12.071Z,0.09
2022-12-31T01:06:30.737Z,0.08
2022-12-31T01:09:48.295Z,0.11
2022-12-31T01:13:04.412Z,-0.04
2022-12-31T01:16:23.182Z,-0.04
2022-12-31T01:19:39.517Z,0.10
2022-12-31T01:22:55.783Z,0.08
2022-12-31T01:26:14.678Z,0.07
2022-12-31T01:29:30.964Z,0.07
2022-12-31T01:32:47.077Z,0.12
2022-12-31T01:36:03.202Z,0.02
2022-12-31T01:39:21.174Z,-0.04
2022-12-31T01:42:37.295Z,-0.09
2022-12-31T01:45:55.637Z,-0.04
2022-12-31T01:49:16.894Z,0.07
2022-12-31T01:52:37.084Z,-0.06
2022-12-31T01:55:58.782Z,0.09
2022-12-31T01:59:18.215Z,0.13
2022-12-31T02:02:34.637Z,0.12
2022-12-31T02:05:55.701Z,0.17
2022-12-31T02:09:11.954Z,0.14
2022-12-31T02:12:28.287Z,0.13
2022-12-31T02:15:53.289Z,0.04
2022-12-31T02:19:16.582Z,0.22
2022-12-31T02:22:46.174Z,0.28
2022-12-31T02:26:28.513Z,0.29
2022-12-31T02:30:10.687Z,0.27
2022-12-31T02:33:31.971Z,0.19
2022-12-31T02:36:51.731Z,0.26
2022-12-31T02:40:10.672Z,0.43
2022-12-31T02:43:26.806Z,0.38
2022-12-31T02:46:47.721Z,0.47
2022-12-31T02:50:38.105Z,0.51
2022-12-31T02:54:17.214Z,0.65
2022-12-31T02:57:39.947Z,0.67
2022-12-31T03:01:14.671Z,0.75
2022-12-31T03:04:39.272Z,0.88
2022-12-31T03:07:55.991Z,0.98
2022-12-31T03:11:14.812Z,0.92
2022-12-31T03:14:31.051Z,0.91
2022-12-31T03:17:47.210Z,0.83
2022-12-31T03:21:19.513Z,0.73
2022-12-31T03:24:49.781Z,0.89
2022-12-31T03:28:06.567Z,1.00
2022-12-31T03:31:23.422Z,1.01
2022-12-31T03:34:39.099Z,1.03
2022-12-31T03:37:56.038Z,1.02
2022-12-31T03:41:12.563Z,1.03
2022-12-31T03:44:28.837Z,1.05
2022-12-31T03:47:45.289Z,1.16
2022-12-31T03:51:01.667Z,1.14
2022-12-31T03:54:18.415Z,1.23
2022-12-31T03:57:34.808Z,0.97
2022-12-31T04:00:50.704Z,0.98
2022-12-31T04:04:06.922Z,0.99
2022-12-31T04:07:23.118Z,0.93
2022-12-31T04:10:39.302Z,0.94
2022-12-31T04:13:55.449Z,0.97
2022-12-31T04:17:11.356Z,1.02
2022-12-31T04:20:27.827Z,1.04
2022-12-31T04:23:44.229Z,1.10
2022-12-31T04:27:07.103Z,1.20
2022-12-31T04:30:20.639Z,1.22
2022-12-31T04:33:36.753Z,1.36
2022-12-31T04:36:55.510Z,1.47
2022-12-31T04:40:13.093Z,1.56
2022-12-31T04:43:30.422Z,1.55
2022-12-31T04:46:46.576Z,1.47
2022-12-31T04:50:02.592Z,1.41
2022-12-31T04:53:18.838Z,1.38
2022-12-31T04:56:38.471Z,1.30
2022-12-31T04:59:52.268Z,1.17
2022-12-31T05:03:08.164Z,1.21
2022-12-31T05:06:26.701Z,1.23
2022-12-31T05:09:43.029Z,1.28
2022-12-31T05:12:59.110Z,1.37
2022-12-31T05:16:18.789Z,1.37
2022-12-31T05:19:34.900Z,1.38
2022-12-31T05:22:51.030Z,1.49
2022-12-31T05:26:07.375Z,2.01
2022-12-31T05:29:23.454Z,3.05
2022-12-31T05:32:40.108Z,4.43
2022-12-31T05:35:58.288Z,5.59
2022-12-31T05:39:14.815Z,6.44
2022-12-31T05:42:31.368Z,6.61
2022-12-31T05:45:47.558Z,6.88
2022-12-31T05:49:03.835Z,7.18
2022-12-31T05:52:20.047Z,7.49
2022-12-31T05:55:38.396Z,7.67
2022-12-31T05:58:54.764Z,7.71
2022-12-31T06:02:11.531Z,7.72
2022-12-31T06:05:27.776Z,7.90
2022-12-31T06:08:43.996Z,7.99
2022-12-31T06:12:01.288Z,8.00
2022-12-31T06:15:19.375Z,8.10
2022-12-31T06:18:36.966Z,8.23
2022-12-31T06:21:54.030Z,8.22
2022-12-31T06:25:14.268Z,8.17
2022-12-31T06:28:30.539Z,8.06
2022-12-31T06:31:48.370Z,8.04
2022-12-31T06:35:04.627Z,8.07
2022-12-31T06:38:23.738Z,8.02
2022-12-31T06:41:44.681Z,7.97
2022-12-31T06:45:02.479Z,7.86
2022-12-31T06:48:19.556Z,7.85
2022-12-31T06:51:35.800Z,7.82
2022-12-31T06:54:53.576Z,7.79
2022-12-31T06:58:11.218Z,7.79
2022-12-31T07:01:52.257Z,7.69
2022-12-31T07:05:40.075Z,7.34
2022-12-31T07:09:01.280Z,6.96
2022-12-31T07:12:24.335Z,6.87
2022-12-31T07:16:01.081Z,6.79
2022-12-31T07:19:37.843Z,6.74
2022-12-31T07:22:57.720Z,6.94
2022-12-31T07:26:20.403Z,7.39
2022-12-31T07:29:46.992Z,7.85
2022-12-31T07:33:45.733Z,8.18
2022-12-31T07:37:13.824Z,8.52
2022-12-31T07:40:35.801Z,8.49
2022-12-31T07:44:05.376Z,8.50
2022-12-31T07:47:31.587Z,8.59
2022-12-31T07:50:49.275Z,8.67
2022-12-31T07:54:10.143Z,8.83
2022-12-31T07:57:26.921Z,9.17
2022-12-31T08:00:45.075Z,9.27
2022-12-31T08:04:07.352Z,9.43
2022-12-31T08:07:31.740Z,9.61
2022-12-31T08:10:55.893Z,9.77
2022-12-31T08:14:16.336Z,9.85
2022-12-31T08:17:34.213Z,10.10
2022-12-31T08:20:55.553Z,10.25
2022-12-31T08:24:19.638Z,10.42
2022-12-31T08:27:42.875Z,10.62
2022-12-31T08:31:05.306Z,10.73
2022-12-31T08:34:31.886Z,10.87
2022-12-31T08:37:53.875Z,11.06
2022-12-31T08:41:17.271Z,11.22
2022-12-31T08:44:40.035Z,11.35
2022-12-31T08:48:04.134Z,11.39
2022-12-31T08:51:30.352Z,11.40
2022-12-31T08:54:47.820Z,11.43
2022-12-31T08:58:16.030Z,11.45
2022-12-31T09:01:38.010Z,11.53
2022-12-31T09:05:05.527Z,11.54
2022-12-31T09:08:28.601Z,11.55
2022-12-31T09:11:54.846Z,11.54
2022-12-31T09:15:16.996Z,11.55
2022-12-31T09:18:35.627Z,11.53
2022-12-31T09:21:51.573Z,11.49
2022-12-31T09:25:08.844Z,11.52
2022-12-31T09:28:33.317Z,11.55
2022-12-31T09:31:57.315Z,11.58
2022-12-31T09:35:23.486Z,11.72
2022-12-31T09:38:51.242Z,11.80
2022-12-31T09:42:45.636Z,11.87
2022-12-31T09:46:47.426Z,11.98
2022-12-31T09:50:42.724Z,12.11
2022-12-31T09:54:23.909Z,12.23
2022-12-31T09:57:47.341Z,12.32
2022-12-31T10:01:09.875Z,12.37
2022-12-31T10:04:51.042Z,12.43
2022-12-31T10:08:12.549Z,12.55
2022-12-31T10:11:33.900Z,12.67
2022-12-31T10:15:04.791Z,12.72
2022-12-31T10:18:33.243Z,12.77
2022-12-31T10:22:02.907Z,12.83
2022-12-31T10:26:10.292Z,12.85
2022-12-31T10:29:38.002Z,12.94
2022-12-31T10:33:04.523Z,12.89
2022-12-31T10:36:29.940Z,12.85
2022-12-31T10:39:57.934Z,12.85
2022-12-31T10:44:03.020Z,12.88
2022-12-31T10:48:12.934Z,12.88
2022-12-31T10:52:30.599Z,12.88
2022-12-31T10:56:33.945Z,12.90
2022-12-31T11:00:20.380Z,12.99
2022-12-31T11:04:18.608Z,13.03
2022-12-31T11:08:03.661Z,13.02
2022-12-31T11:11:35.867Z,13.04
2022-12-31T11:15:14.892Z,13.05
2022-12-31T11:18:37.335Z,13.03
2022-12-31T11:22:09.361Z,13.02
2022-12-31T11:25:48.829Z,13.04
2022-12-31T11:29:27.274Z,13.05
2022-12-31T11:32:57.030Z,13.03
2022-12-31T11:36:25.771Z,13.01
2022-12-31T11:39:56.123Z,13.00
2022-12-31T11:43:29.838Z,13.04
2022-12-31T11:47:06.783Z,13.07
2022-12-31T11:50:43.739Z,13.03
2022-12-31T11:54:30.555Z,12.99
2022-12-31T11:57:51.893Z,13.01
2022-12-31T12:01:13.874Z,13.01
2022-12-31T12:04:30.344Z,13.02
2022-12-31T12:07:46.944Z,13.01
2022-12-31T12:11:09.495Z,12.99
2022-12-31T12:14:39.138Z,13.01
2022-12-31T12:18:02.149Z,13.04
2022-12-31T12:21:22.792Z,13.10
2022-12-31T12:24:41.313Z,13.15
2022-12-31T12:27:57.844Z,13.23
2022-12-31T12:31:23.750Z,13.31
2022-12-31T12:34:49.153Z,13.36
2022-12-31T12:38:12.230Z,13.42
2022-12-31T12:41:32.695Z,13.47
2022-12-31T12:44:49.705Z,13.51
2022-12-31T12:48:12.061Z,13.49
2022-12-31T12:51:51.553Z,13.46
2022-12-31T12:55:21.435Z,13.44
2022-12-31T12:58:53.445Z,13.46
2022-12-31T13:02:19.236Z,13.43
2022-12-31T13:05:46.210Z,13.40
2022-12-31T13:09:26.767Z,13.40
2022-12-31T13:13:22.706Z,13.38
2022-12-31T13:16:11.758Z,13.35
2022-12-31T13:19:33.702Z,13.35
2022-12-31T13:22:53.265Z,13.33
2022-12-31T13:26:15.767Z,13.32
2022-12-31T13:29:36.876Z,13.29
2022-12-31T13:32:57.747Z,13.31
2022-12-31T13:36:18.631Z,13.33
2022-12-31T13:39:37.980Z,13.30
2022-12-31T13:43:00.801Z,13.29
2022-12-31T13:46:25.055Z,13.25
2022-12-31T13:49:46.153Z,13.25
2022-12-31T13:53:08.782Z,13.24
2022-12-31T13:56:29.732Z,13.22
2022-12-31T13:59:51.342Z,13.19
2022-12-31T14:03:14.925Z,13.19
2022-12-31T14:06:38.683Z,13.18
2022-12-31T14:09:55.468Z,13.15
2022-12-31T14:13:21.564Z,13.17
2022-12-31T14:16:43.898Z,13.25
2022-12-31T14:20:15.250Z,13.22
2022-12-31T14:23:37.012Z,13.24
2022-12-31T14:26:58.840Z,13.23
2022-12-31T14:30:23.087Z,13.24
2022-12-31T14:33:52.376Z,13.24
2022-12-31T14:37:13.887Z,13.26
2022-12-31T14:40:37.159Z,13.26
2022-12-31T14:44:03.202Z,13.27
2022-12-31T14:47:35.812Z,13.26
2022-12-31T14:50:54.649Z,13.23
2022-12-31T14:54:11.170Z,13.22
2022-12-31T14:57:54.408Z,13.21
2022-12-31T15:01:05.365Z,13.18
2022-12-31T15:04:36.078Z,13.17
2022-12-31T15:08:18.469Z,13.20
2022-12-31T15:11:51.468Z,13.20
2022-12-31T15:15:32.713Z,13.17
2022-12-31T15:19:12.689Z,13.19
2022-12-31T15:22:44.092Z,13.17
2022-12-31T15:26:06.508Z,13.22
2022-12-31T15:29:36.366Z,13.19
2022-12-31T15:32:55.056Z,13.17
2022-12-31T15:36:26.626Z,13.20
2022-12-31T15:39:53.744Z,13.24
2022-12-31T15:43:15.531Z,13.22
2022-12-31T15:46:37.258Z,13.22
2022-12-31T15:49:58.372Z,13.23
2022-12-31T15:53:21.401Z,13.29
2022-12-31T15:56:46.172Z,13.31
2022-12-31T16:00:09.387Z,13.34
2022-12-31T16:03:32.898Z,13.38
2022-12-31T16:06:51.210Z,13.38
2022-12-31T16:10:11.531Z,13.40
2022-12-31T16:13:32.611Z,13.35
2022-12-31T16:16:58.310Z,13.35
2022-12-31T16:20:32.258Z,13.35
2022-12-31T16:23:56.468Z,13.32
2022-12-31T16:27:18.273Z,13.30
2022-12-31T16:30:37.872Z,13.30
2022-12-31T16:33:54.810Z,13.31
2022-12-31T16:37:19.648Z,13.31
2022-12-31T16:40:36.259Z,13.33
2022-12-31T16:43:54.458Z,13.37
2022-12-31T16:47:11.970Z,13.35
2022-12-31T16:50:32.642Z,13.38
2022-12-31T16:53:52.166Z,13.39
2022-12-31T16:57:11.292Z,13.40
2022-12-31T17:00:31.388Z,13.45
2022-12-31T17:03:51.113Z,13.48
2022-12-31T17:07:45.658Z,13.52
2022-12-31T17:11:03.041Z,13.55
2022-12-31T17:14:24.673Z,13.56
2022-12-31T17:17:43.985Z,13.65
2022-12-31T17:20:59.842Z,13.70
2022-12-31T17:24:20.195Z,13.71
2022-12-31T17:27:37.273Z,13.73
2022-12-31T17:30:54.175Z,13.72
2022-12-31T17:34:37.668Z,13.81
2022-12-31T17:37:54.231Z,13.86
2022-12-31T17:41:31.035Z,13.89
2022-12-31T17:44:50.615Z,13.95
2022-12-31T17:48:07.349Z,13.95
2022-12-31T17:51:24.366Z,13.97
2022-12-31T17:54:41.228Z,13.97
2022-12-31T17:58:02.757Z,13.96
2022-12-31T18:01:22.994Z,13.97
2022-12-31T18:04:39.737Z,14.01
2022-12-31T18:07:56.270Z,14.01
2022-12-31T18:11:13.508Z,13.99
2022-12-31T18:14:30.539Z,13.98
2022-12-31T18:17:56.099Z,13.98
2022-12-31T18:21:42.864Z,14.02
2022-12-31T18:25:12.473Z,14.04
2022-12-31T18:28:30.610Z,14.04
2022-12-31T18:31:56.418Z,14.04
2022-12-31T18:35:57.627Z,14.12
2022-12-31T18:39:02.603Z,14.11
2022-12-31T18:42:27.103Z,14.17
2022-12-31T18:45:43.941Z,14.18
2022-12-31T18:49:00.458Z,14.25
2022-12-31T18:52:21.182Z,14.29
2022-12-31T18:55:44.094Z,14.27
2022-12-31T18:59:00.687Z,14.24
2022-12-31T19:02:25.587Z,14.22
2022-12-31T19:05:44.930Z,14.27
2022-12-31T19:09:01.443Z,14.26
2022-12-31T19:12:22.247Z,14.29
2022-12-31T19:15:47.792Z,14.29
2022-12-31T19:19:08.674Z,14.29
2022-12-31T19:22:26.709Z,14.33
2022-12-31T19:25:44.839Z,14.32
2022-12-31T19:29:00.984Z,14.29
2022-12-31T19:32:18.255Z,14.34
2022-12-31T19:35:34.954Z,14.36
2022-12-31T19:38:51.259Z,14.36
2022-12-31T19:42:09.266Z,14.33
2022-12-31T19:45:28.868Z,14.31
2022-12-31T19:48:47.134Z,14.30
2022-12-31T19:52:03.328Z,14.28
2022-12-31T19:55:25.907Z,14.30
2022-12-31T19:58:42.330Z,14.28
2022-12-31T20:02:01.521Z,14.27
2022-12-31T20:05:21.141Z,14.29
2022-12-31T20:08:37.760Z,14.26
2022-12-31T20:11:55.549Z,14.24
2022-12-31T20:15:13.526Z,14.24
2022-12-31T20:18:29.797Z,14.22
2022-12-31T20:21:46.578Z,14.22
2022-12-31T20:25:02.850Z,14.23
2022-12-31T20:28:19.408Z,14.26
2022-12-31T20:31:36.593Z,14.29
2022-12-31T20:34:52.743Z,14.28
2022-12-31T20:38:09.039Z,14.32
2022-12-31T20:41:28.321Z,14.35
2022-12-31T20:44:44.773Z,14.34
2022-12-31T20:48:01.026Z,14.42
2022-12-31T20:51:17.741Z,14.43
2022-12-31T20:54:34.238Z,14.42
2022-12-31T20:57:50.634Z,14.46
2022-12-31T21:01:07.329Z,14.47
2022-12-31T21:04:24.276Z,14.52
2022-12-31T21:07:40.755Z,14.51
2022-12-31T21:10:59.025Z,14.55
2022-12-31T21:14:17.166Z,14.59
2022-12-31T21:17:33.554Z,14.59
2022-12-31T21:20:53.099Z,14.67
2022-12-31T21:24:09.770Z,14.72
2022-12-31T21:27:26.053Z,14.75
2022-12-31T21:30:43.376Z,14.72
2022-12-31T21:33:59.650Z,14.69
2022-12-31T21:37:16.163Z,14.69
2022-12-31T21:40:32.396Z,14.72
2022-12-31T21:43:48.577Z,14.76
2022-12-31T21:47:35.271Z,14.75
2022-12-31T21:50:35.632Z,14.85
2022-12-31T21:53:52.000Z,14.88
2022-12-31T21:57:09.349Z,14.87
2022-12-31T22:00:42.659Z,14.90
2022-12-31T22:04:00.217Z,14.87
2022-12-31T22:07:16.371Z,14.84
2022-12-31T22:10:36.949Z,14.87
2022-12-31T22:13:51.661Z,14.88
2022-12-31T22:17:07.907Z,14.83
2022-12-31T22:20:28.238Z,14.85
2022-12-31T22:23:45.287Z,14.87
2022-12-31T22:27:28.114Z,14.82
2022-12-31T22:30:22.555Z,14.85
2022-12-31T22:33:39.238Z,14.86
2022-12-31T22:36:58.182Z,14.81
2022-12-31T22:40:17.348Z,14.79
2022-12-31T22:43:33.890Z,14.72
2022-12-31T22:46:50.936Z,14.65
2022-12-31T22:50:08.604Z,14.62
2022-12-31T22:53:25.090Z,14.60
2022-12-31T22:56:42.064Z,14.57
2022-12-31T22:59:58.409Z,14.38
2022-12-31T23:03:14.756Z,14.17
2022-12-31T23:06:32.533Z,13.82
2022-12-31T23:10:06.476Z,13.54
2022-12-31T23:13:37.110Z,13.24
2022-12-31T23:17:29.676Z,12.95
2022-12-31T23:20:44.613Z,12.62
2022-12-31T23:24:05.515Z,12.57
2022-12-31T23:27:22.840Z,12.51
2022-12-31T23:30:39.569Z,12.46
2022-12-31T23:33:55.808Z,12.41
2022-12-31T23:37:12.372Z,12.35
2022-12-31T23:40:30.572Z,12.29
2022-12-31T23:43:47.026Z,12.24
2022-12-31T23:47:06.094Z,12.14
2022-12-31T23:50:22.751Z,12.11
2022-12-31T23:53:39.367Z,12.08
2022-12-31T23:56:57.686Z,12.04
